Laprairie — VC9004 — position and weather

sailwx.info

Track history (hours):
 
Tides and Currents Weather Stations Pressure Air Temp Water Temp Dewpoint Dewpoint Depression Visibility Wind Speed Wind Dir Waves Ship Positions

Laprairie

Last reported at 2015-Apr-29 12:34 UTC. Time now 2015-May-03 18:54 UTC.
Position N 44°13' W 076°30'.

Length 22 m; draft 10 m.

Type: Tug. MMSI: 316005239.

Date/timePositionNaut miles runAvg speedWind from/ knotsBaromVisibWave heightAir tempDewpointWater temp
2015-Apr-29 12:34N 44°13' W 076°30'0 0.3
2015-Apr-29 11:34N 44°13' W 076°29'1 1.0
2015-Apr-29 10:34N 44°14' W 076°29'0 0.0
2015-Apr-29 09:34N 44°14' W 076°29'0 0.0
2015-Apr-29 08:34N 44°14' W 076°29'0 0.0
2015-Apr-29 07:34N 44°14' W 076°29'0 0.0
2015-Apr-29 06:34N 44°14' W 076°29'0 0.0
2015-Apr-29 05:34N 44°14' W 076°29'0 0.0
2015-Apr-29 04:33N 44°14' W 076°29'0 0.0
2015-Apr-29 03:34N 44°14' W 076°29'0 0.0
2015-Apr-29 02:34N 44°14' W 076°29'0 0.0
2015-Apr-29 01:33N 44°14' W 076°29'0 0.0
2015-Apr-29 00:34N 44°14' W 076°29'0 0.0
2015-Apr-28 23:34N 44°14' W 076°29'5 4.7
2015-Apr-28 22:33N 44°14' W 076°22'116 3.8
2015-Apr-27 16:24N 45°14' W 074°01'6 6.8
2015-Apr-27 15:29N 45°18' W 073°56'6 6.4
2015-Apr-27 14:32N 45°22' W 073°49'7 7.3
2015-Apr-27 13:33N 45°25' W 073°40'  
Track history (hours):
 
Tides and Currents Weather Stations Pressure Air Temp Water Temp Dewpoint Dewpoint Depression Visibility Wind Speed Wind Dir Waves Ship Positions

Laprairie

Last reported at 2015-Apr-29 12:34 UTC. Time now 2015-May-03 18:54 UTC.
Position N 44°13' W 076°30'.

Length 22 m; draft 10 m.

Type: Tug. MMSI: 316005239.

Date/timePositionNaut miles runAvg speedWind from/ knotsBaromVisibWave heightAir tempDewpointWater temp
2015-Apr-29 12:34N 44°13' W 076°30'0 0.3
2015-Apr-29 11:34N 44°13' W 076°29'1 1.0
2015-Apr-29 10:34N 44°14' W 076°29'0 0.0
2015-Apr-29 09:34N 44°14' W 076°29'0 0.0
2015-Apr-29 08:34N 44°14' W 076°29'0 0.0
2015-Apr-29 07:34N 44°14' W 076°29'0 0.0
2015-Apr-29 06:34N 44°14' W 076°29'0 0.0
2015-Apr-29 05:34N 44°14' W 076°29'0 0.0
2015-Apr-29 04:33N 44°14' W 076°29'0 0.0
2015-Apr-29 03:34N 44°14' W 076°29'0 0.0
2015-Apr-29 02:34N 44°14' W 076°29'0 0.0
2015-Apr-29 01:33N 44°14' W 076°29'0 0.0
2015-Apr-29 00:34N 44°14' W 076°29'0 0.0
2015-Apr-28 23:34N 44°14' W 076°29'5 4.7
2015-Apr-28 22:33N 44°14' W 076°22'116 3.8
2015-Apr-27 16:24N 45°14' W 074°01'6 6.8
2015-Apr-27 15:29N 45°18' W 073°56'6 6.4
2015-Apr-27 14:32N 45°22' W 073°49'7 7.3
2015-Apr-27 13:33N 45°25' W 073°40'  

Dump ship's entire track history